Time;durP1;ratioP1;P1;durP2;ratioP2;P2;SDS_P1;SDS_P2;PMS_P1;PMS_P2;Temp;Humidity;BMP_temperature;BMP_pressure;BME280_temperature;BME280_humidity;BME280_pressure;Samples;Min_cycle;Max_cycle;Signal;HPM_P1;HPM_P2
2023/05/05 00:00:58;;;;;;;;;;;;;;;27.47;39.22;94446.19;5028070;28;7283;-64
2023/05/05 00:03:24;;;;;;;;;;;;;;;27.48;38.98;94447.66;5022034;28;9295;-63
2023/05/05 00:05:54;;;;;;;;;;;;;;;27.48;38.80;94437.38;5025553;28;7107;-64
2023/05/05 00:08:21;;;;;;;;;;;;;;;27.45;39.07;94438.41;5021981;28;8529;-63
2023/05/05 00:10:49;;;;;;;;;;;;;;;27.47;39.14;94437.91;5015726;28;9341;-63
2023/05/05 00:13:16;;;;;;;;;;;;;;;27.47;38.92;94435.16;5025065;28;9456;-64
2023/05/05 00:15:45;;;;;;;;;;;;;;;27.47;38.94;94435.88;5034386;28;7405;-64
2023/05/05 00:18:13;;;;;;;;;;;;;;;27.45;39.62;94440.41;5034173;28;9225;-64
2023/05/05 00:20:47;;;;;;;;;;;;;;;27.40;38.90;94424.69;5036100;28;9723;-63
2023/05/05 00:23:15;;;;;;;;;;;;;;;27.37;39.37;94426.47;5023468;28;7047;-64
2023/05/05 00:25:41;;;;;;;;;;;;;;;27.36;39.17;94424.97;5032985;28;9153;-63
2023/05/05 00:28:07;;;;;;;;;;;;;;;27.35;39.25;94417.97;5029058;28;9213;-64
2023/05/05 00:30:33;;;;;;;;;;;;;;;27.35;39.30;94422.69;5031246;28;9767;-64
2023/05/05 00:33:00;;;;;;;;;;;;;;;27.33;39.21;94420.47;5024779;28;7278;-64
2023/05/05 00:35:26;;;;;;;;;;;;;;;27.33;38.91;94420.47;5031179;28;7219;-63
2023/05/05 00:37:52;;;;;;;;;;;;;;;27.33;39.26;94426.00;5026625;28;7070;-64
2023/05/05 00:40:18;;;;;;;;;;;;;;;27.32;39.01;94426.50;5023146;28;9022;-64
2023/05/05 00:42:51;;;;;;;;;;;;;;;27.32;39.82;94426.50;5028587;28;9288;-64
2023/05/05 00:45:19;;;;;;;;;;;;;;;27.31;39.33;94416.72;5022264;28;7156;-64
2023/05/05 00:48:06;;;;;;;;;;;;;;;27.31;39.46;94422.25;5023328;28;7972;-64
2023/05/05 00:50:32;;;;;;;;;;;;;;;27.31;39.36;94413.97;5002839;28;8230;-63
2023/05/05 00:53:07;;;;;;;;;;;;;;;27.30;39.28;94410.44;5014413;28;9050;-64
2023/05/05 00:56:22;;;;;;;;;;;;;;;27.30;39.47;94418.75;5014407;28;9162;-63
2023/05/05 00:59:06;;;;;;;;;;;;;;;27.29;39.49;94413.75;4981350;28;7037;-64
2023/05/05 01:01:51;;;;;;;;;;;;;;;27.29;39.71;94416.50;4983104;28;9045;-63
2023/05/05 01:07:48;;;;;;;;;;;;;;;27.27;39.48;94417.03;4942041;28;8594;-64
2023/05/05 01:11:10;;;;;;;;;;;;;;;27.27;39.21;94421.81;4947251;28;7275;-64
2023/05/05 01:14:08;;;;;;;;;;;;;;;27.26;39.30;94417.53;4881384;29;8989;-64
2023/05/05 01:17:06;;;;;;;;;;;;;;;27.24;39.76;94418.06;4890312;29;7299;-64
2023/05/05 01:19:54;;;;;;;;;;;;;;;27.24;39.76;94417.31;4893161;29;9042;-64
2023/05/05 01:22:27;;;;;;;;;;;;;;;27.22;39.78;94406.78;4874867;29;8973;-64
2023/05/05 01:25:29;;;;;;;;;;;;;;;27.24;39.43;94409.78;4876503;29;9518;-64
2023/05/05 01:28:11;;;;;;;;;;;;;;;27.22;39.46;94412.31;4888953;29;7524;-64
2023/05/05 01:31:28;;;;;;;;;;;;;;;27.24;39.72;94420.06;4897404;29;7219;-64
2023/05/05 01:34:07;;;;;;;;;;;;;;;27.22;39.47;94415.09;4869834;29;7153;-64
2023/05/05 01:37:12;;;;;;;;;;;;;;;27.21;39.42;94413.56;4865449;29;8984;-64
2023/05/05 01:39:42;;;;;;;;;;;;;;;27.21;39.63;94413.56;4858593;29;7137;-63
2023/05/05 01:42:13;;;;;;;;;;;;;;;27.21;39.63;94410.81;4856903;29;7234;-64
2023/05/05 01:44:50;;;;;;;;;;;;;;;27.21;39.54;94413.56;4873452;29;6995;-64
2023/05/05 01:47:20;;;;;;;;;;;;;;;27.20;39.42;94408.59;4913130;28;9390;-63
2023/05/05 01:49:48;;;;;;;;;;;;;;;27.19;39.17;94405.06;4940327;28;7043;-63
2023/05/05 01:52:58;;;;;;;;;;;;;;;27.19;39.43;94407.81;4963139;28;7025;-64
2023/05/05 01:55:29;;;;;;;;;;;;;;;27.15;39.16;94404.63;4958988;28;9303;-63
2023/05/05 01:58:14;;;;;;;;;;;;;;;27.16;39.55;94414.41;4965424;28;7664;-64
2023/05/05 02:00:55;;;;;;;;;;;;;;;27.15;39.74;94412.16;4943613;28;7480;-64
2023/05/05 02:03:24;;;;;;;;;;;;;;;27.15;39.14;94407.38;4954343;28;8928;-64
2023/05/05 02:06:17;;;;;;;;;;;;;;;27.16;39.67;94414.41;4952127;28;8706;-64
2023/05/05 02:09:11;;;;;;;;;;;;;;;27.17;39.62;94406.84;4969665;28;7459;-63
2023/05/05 02:12:02;;;;;;;;;;;;;;;27.15;39.65;94409.38;5023137;28;7312;-63
2023/05/05 02:14:38;;;;;;;;;;;;;;;27.16;39.78;94406.13;5016766;28;7226;-63
2023/05/05 02:17:03;;;;;;;;;;;;;;;27.15;39.68;94407.38;5021802;28;7027;-64
2023/05/05 02:23:15;;;;;;;;;;;;;;;27.12;39.61;94404.94;4990097;28;9360;-63
2023/05/05 02:25:58;;;;;;;;;;;;;;;27.12;39.47;94408.41;4973758;28;7016;-63
2023/05/05 02:29:14;;;;;;;;;;;;;;;27.11;39.31;94409.69;4990069;28;7145;-64
2023/05/05 02:32:17;;;;;;;;;;;;;;;27.13;39.63;94409.16;4961745;28;7190;-63
2023/05/05 02:35:26;;;;;;;;;;;;;;;27.12;39.46;94411.16;4983381;28;9351;-64
2023/05/05 02:38:16;;;;;;;;;;;;;;;27.12;39.55;94415.97;4989903;28;8943;-64
2023/05/05 02:41:06;;;;;;;;;;;;;;;27.09;39.73;94409.47;4975150;28;7328;-63
2023/05/05 02:43:47;;;;;;;;;;;;;;;27.08;39.60;94410.72;4991332;28;7340;-64
2023/05/05 02:46:15;;;;;;;;;;;;;;;27.10;39.32;94412.97;4991632;28;9069;-63
2023/05/05 02:49:30;;;;;;;;;;;;;;;27.09;39.75;94409.47;4979734;28;8833;-64
2023/05/05 02:52:13;;;;;;;;;;;;;;;27.08;39.64;94410.00;4978629;28;7113;-64
2023/05/05 02:54:40;;;;;;;;;;;;;;;27.08;39.15;94416.25;4968424;28;8729;-64
2023/05/05 02:57:45;;;;;;;;;;;;;;;27.09;39.65;94408.72;4985201;28;9878;-64
2023/05/05 03:00:21;;;;;;;;;;;;;;;27.06;39.61;94406.97;5025835;28;7064;-64
2023/05/05 03:03:31;;;;;;;;;;;;;;;27.06;39.56;94412.50;5042381;28;7037;-64
2023/05/05 03:06:26;;;;;;;;;;;;;;;27.08;39.78;94412.75;5036389;28;7309;-64
2023/05/05 03:09:46;;;;;;;;;;;;;;;27.06;40.06;94407.75;5019053;28;9015;-63
2023/05/05 03:12:38;;;;;;;;;;;;;;;27.06;39.85;94396.69;5043668;28;7256;-64
2023/05/05 03:15:24;;;;;;;;;;;;;;;27.05;39.86;94386.94;5034058;28;7274;-64
2023/05/05 03:18:09;;;;;;;;;;;;;;;27.04;39.67;94388.19;5026683;28;7307;-64
2023/05/05 03:20:53;;;;;;;;;;;;;;;27.03;40.10;94383.94;5030723;28;9783;-65
2023/05/05 03:23:24;;;;;;;;;;;;;;;27.05;38.87;94388.94;5022265;28;9335;-64
2023/05/05 03:26:03;;;;;;;;;;;;;;;27.03;39.75;94392.22;5028447;28;7358;-64
2023/05/05 03:28:52;;;;;;;;;;;;;;;27.04;39.60;94390.94;5021224;28;7256;-64
2023/05/05 03:31:20;;;;;;;;;;;;;;;27.02;39.32;94387.22;5033683;28;9113;-64
2023/05/05 03:33:58;;;;;;;;;;;;;;;27.04;39.58;94390.19;5017761;28;7437;-64
2023/05/05 03:36:37;;;;;;;;;;;;;;;27.03;39.55;94392.22;5041312;28;9146;-65
2023/05/05 03:39:20;;;;;;;;;;;;;;;27.02;39.49;94385.19;5033469;28;7431;-64
2023/05/05 03:42:14;;;;;;;;;;;;;;;27.03;39.45;94386.72;5022291;28;6999;-64
2023/05/05 03:44:53;;;;;;;;;;;;;;;27.03;39.37;94386.72;5036911;28;8518;-65
2023/05/05 03:47:53;;;;;;;;;;;;;;;27.00;39.46;94376.69;5034763;28;7384;-64
2023/05/05 03:51:13;;;;;;;;;;;;;;;27.01;39.45;94378.19;5015887;28;8932;-64
2023/05/05 03:53:49;;;;;;;;;;;;;;;27.01;39.54;94386.47;5006936;28;7343;-64
2023/05/05 03:56:15;;;;;;;;;;;;;;;26.99;39.47;94377.94;5014059;28;9235;-64
2023/05/05 03:59:02;;;;;;;;;;;;;;;26.99;39.57;94379.97;5018705;28;7063;-64
2023/05/05 04:01:35;;;;;;;;;;;;;;;27.00;39.74;94393.25;5003466;28;7642;-64
2023/05/05 04:04:01;;;;;;;;;;;;;;;26.99;39.92;94396.53;5014856;28;7511;-63
2023/05/05 04:06:28;;;;;;;;;;;;;;;26.98;39.72;94392.28;5006275;28;9363;-64
2023/05/05 04:09:07;;;;;;;;;;;;;;;26.97;39.60;94388.03;5006273;28;7301;-64
2023/05/05 04:11:45;;;;;;;;;;;;;;;26.96;39.82;94387.28;5004228;28;6998;-64
2023/05/05 04:14:21;;;;;;;;;;;;;;;26.97;39.78;94388.03;5004827;28;9060;-64
2023/05/05 04:16:56;;;;;;;;;;;;;;;26.99;39.98;94385.50;5004134;28;8930;-64
2023/05/05 04:19:37;;;;;;;;;;;;;;;26.98;39.30;94395.78;5014316;28;8302;-64
2023/05/05 04:22:04;;;;;;;;;;;;;;;26.96;39.06;94390.06;5008532;28;8796;-64
2023/05/05 04:24:31;;;;;;;;;;;;;;;26.96;39.72;94390.06;4990929;28;9013;-64
2023/05/05 04:27:30;;;;;;;;;;;;;;;26.96;39.54;94392.81;5013092;28;7852;-63
2023/05/05 04:29:56;;;;;;;;;;;;;;;26.97;39.83;94393.56;4991479;28;8770;-64
2023/05/05 04:33:02;;;;;;;;;;;;;;;26.94;39.83;94392.59;4997228;28;9040;-64
2023/05/05 04:35:45;;;;;;;;;;;;;;;26.95;39.77;94394.06;4952887;28;9094;-64
2023/05/05 04:38:13;;;;;;;;;;;;;;;26.94;39.77;94400.88;4945791;28;9177;-64
2023/05/05 04:40:48;;;;;;;;;;;;;;;26.93;39.88;94396.59;4965253;28;7367;-64
2023/05/05 04:43:30;;;;;;;;;;;;;;;26.95;39.97;94401.63;4948135;28;9437;-64
2023/05/05 04:46:13;;;;;;;;;;;;;;;26.92;39.35;94395.13;4944466;28;7042;-64
2023/05/05 04:48:41;;;;;;;;;;;;;;;26.90;39.87;94400.41;4945161;28;7054;-64
2023/05/05 04:51:07;;;;;;;;;;;;;;;26.93;39.73;94410.41;4940421;28;9478;-63
2023/05/05 04:53:45;;;;;;;;;;;;;;;26.94;40.16;94406.38;4951438;28;9430;-64
2023/05/05 04:56:40;;;;;;;;;;;;;;;26.93;40.01;94407.63;4945751;28;9061;-63
2023/05/05 04:59:14;;;;;;;;;;;;;;;26.91;39.79;94410.16;4956454;28;9443;-64
2023/05/05 05:01:48;;;;;;;;;;;;;;;26.91;40.21;94418.44;4965671;28;7352;-64
2023/05/05 05:04:33;;;;;;;;;;;;;;;26.92;39.69;94431.72;4962256;28;9495;-63
2023/05/05 05:07:08;;;;;;;;;;;;;;;26.89;40.15;94426.50;4995763;28;7365;-63
2023/05/05 05:10:04;;;;;;;;;;;;;;;26.88;40.16;94436.78;4981795;28;8229;-63
2023/05/05 05:12:49;;;;;;;;;;;;;;;26.86;40.35;94431.03;4992328;28;9393;-63
2023/05/05 05:15:24;;;;;;;;;;;;;;;26.81;39.76;94428.34;4992674;28;7060;-63
2023/05/05 05:18:10;;;;;;;;;;;;;;;26.85;39.92;94431.56;5005726;28;8077;-63
2023/05/05 05:20:46;;;;;;;;;;;;;;;26.84;40.11;94433.56;5004329;28;7274;-63
2023/05/05 05:23:46;;;;;;;;;;;;;;;26.83;40.17;94428.59;4997984;28;8715;-62
2023/05/05 05:26:39;;;;;;;;;;;;;;;26.81;40.17;94418.06;4953003;28;7336;-62
2023/05/05 05:29:06;;;;;;;;;;;;;;;26.79;40.29;94414.34;4936676;28;9409;-63
2023/05/05 05:31:35;;;;;;;;;;;;;;;26.83;40.46;94423.81;4948324;28;9132;-63
2023/05/05 05:34:34;;;;;;;;;;;;;;;26.89;39.91;94420.97;4941016;28;9509;-63
2023/05/05 05:37:12;;;;;;;;;;;;;;;26.90;39.57;94425.25;4993561;28;9052;-63
2023/05/05 05:40:04;;;;;;;;;;;;;;;26.92;39.40;94431.00;4992528;28;7025;-63
2023/05/05 05:42:47;;;;;;;;;;;;;;;26.88;40.00;94439.56;4992178;28;9055;-63
2023/05/05 05:45:21;;;;;;;;;;;;;;;26.88;39.99;94442.31;4990776;28;7294;-62
2023/05/05 05:48:00;;;;;;;;;;;;;;;26.90;40.77;94444.56;4980258;28;7417;-63
2023/05/05 05:50:38;;;;;;;;;;;;;;;26.89;40.36;94443.06;4978105;28;9020;-62
2023/05/05 05:53:35;;;;;;;;;;;;;;;26.92;40.29;94451.03;4983082;28;7207;-62
2023/05/05 05:56:22;;;;;;;;;;;;;;;26.92;40.60;94447.56;4977705;28;7291;-62
2023/05/05 05:59:26;;;;;;;;;;;;;;;26.93;40.62;94449.03;4992381;28;7424;-62
2023/05/05 06:01:57;;;;;;;;;;;;;;;26.92;40.45;94452.31;4946708;28;7138;-63
2023/05/05 06:04:23;;;;;;;;;;;;;;;26.96;40.75;94442.50;4968995;28;8602;-62
2023/05/05 06:06:49;;;;;;;;;;;;;;;26.97;40.57;94446.72;4969771;28;8851;-62
2023/05/05 06:09:15;;;;;;;;;;;;;;;26.98;40.60;94451.00;4953020;28;9078;-62
2023/05/05 06:11:46;;;;;;;;;;;;;;;26.97;40.89;94449.50;4956274;28;7361;-62
2023/05/05 06:14:12;;;;;;;;;;;;;;;26.97;40.68;94446.72;4953900;28;7357;-62
2023/05/05 06:16:38;;;;;;;;;;;;;;;26.97;41.21;94443.97;4969490;28;9003;-62
2023/05/05 06:19:08;;;;;;;;;;;;;;;27.00;41.91;94448.47;4969883;28;7006;-62
2023/05/05 06:21:37;;;;;;;;;;;;;;;27.03;41.09;94447.44;4969775;28;7063;-62
2023/05/05 06:24:04;;;;;;;;;;;;;;;27.03;41.67;94447.44;4948299;28;7033;-61
2023/05/05 06:26:30;;;;;;;;;;;;;;;27.05;41.80;94447.66;4953223;28;7121;-61
2023/05/05 06:28:56;;;;;;;;;;;;;;;27.07;42.19;94449.91;4968517;28;8943;-61
2023/05/05 06:31:22;;;;;;;;;;;;;;;27.07;41.80;94444.38;4967281;28;8743;-61
2023/05/05 06:33:49;;;;;;;;;;;;;;;27.10;41.37;94446.84;5017408;28;7099;-62
2023/05/05 06:36:15;;;;;;;;;;;;;;;27.11;41.33;94450.34;5012536;28;8402;-62
2023/05/05 06:39:02;;;;;;;;;;;;;;;27.10;41.32;94449.59;5030594;28;9446;-62
2023/05/05 06:41:48;;;;;;;;;;;;;;;27.09;41.21;94444.59;5012752;28;8270;-62
2023/05/05 06:44:35;;;;;;;;;;;;;;;27.09;40.97;94444.59;5026145;28;7133;-63
2023/05/05 06:47:11;;;;;;;;;;;;;;;27.07;41.14;94442.38;5033294;28;9439;-64
2023/05/05 06:49:41;;;;;;;;;;;;;;;27.09;41.10;94441.84;5024228;28;8969;-62
2023/05/05 06:52:13;;;;;;;;;;;;;;;27.08;40.81;94445.88;5025786;28;7376;-62
2023/05/05 06:54:39;;;;;;;;;;;;;;;27.09;41.25;94445.34;5035870;28;7019;-63
2023/05/05 06:57:05;;;;;;;;;;;;;;;27.07;40.99;94442.38;5022484;28;7018;-63
2023/05/05 06:59:47;;;;;;;;;;;;;;;27.10;41.04;94448.88;5017932;28;7855;-63
2023/05/05 07:02:26;;;;;;;;;;;;;;;27.10;41.07;94443.34;5025955;28;7408;-63
2023/05/05 07:04:58;;;;;;;;;;;;;;;27.12;41.19;94443.56;5039161;28;6859;-63
2023/05/05 07:07:25;;;;;;;;;;;;;;;27.12;40.61;94449.81;5023904;28;7308;-62
2023/05/05 07:10:02;;;;;;;;;;;;;;;27.11;40.72;94439.31;5021625;28;7451;-63
2023/05/05 07:12:42;;;;;;;;;;;;;;;27.10;40.24;94446.84;5030015;28;9040;-63
2023/05/05 07:15:26;;;;;;;;;;;;;;;27.13;40.52;94443.06;5028552;28;7211;-63
2023/05/05 07:17:52;;;;;;;;;;;;;;;27.11;40.58;94440.06;5038223;28;7123;-64
2023/05/05 07:20:24;;;;;;;;;;;;;;;27.10;40.77;94444.06;5026800;28;7006;-64
2023/05/05 07:22:50;;;;;;;;;;;;;;;27.06;41.31;94437.34;5020494;28;7018;-65
2023/05/05 07:25:24;;;;;;;;;;;;;;;27.06;40.86;94438.09;5014978;28;6991;-64
2023/05/05 07:28:12;;;;;;;;;;;;;;;27.07;41.07;94436.09;5028970;28;7035;-64
2023/05/05 07:31:08;;;;;;;;;;;;;;;27.08;40.67;94437.59;5024005;28;9065;-64
2023/05/05 07:33:54;;;;;;;;;;;;;;;27.05;41.20;94427.59;4981345;28;9565;-64
2023/05/05 07:36:50;;;;;;;;;;;;;;;27.06;41.11;94432.59;4997889;28;7079;-63
2023/05/05 07:40:11;;;;;;;;;;;;;;;27.08;41.08;94430.03;4982985;28;9177;-63
2023/05/05 07:43:03;;;;;;;;;;;;;;;27.07;41.25;94425.81;4992910;28;7461;-63
2023/05/05 07:45:45;;;;;;;;;;;;;;;27.05;41.70;94427.59;4991263;28;8651;-63
2023/05/05 07:48:21;;;;;;;;;;;;;;;27.05;40.78;94425.59;4986217;28;7949;-62
2023/05/05 07:51:05;;;;;;;;;;;;;;;27.06;41.03;94426.31;4995811;28;9067;-63
2023/05/05 07:53:42;;;;;;;;;;;;;;;27.05;40.86;94422.81;4992272;28;7696;-63
2023/05/05 07:56:43;;;;;;;;;;;;;;;27.06;41.26;94431.84;4991640;28;9136;-63
2023/05/05 07:59:28;;;;;;;;;;;;;;;27.08;41.06;94426.56;4988169;28;7026;-63
2023/05/05 08:02:00;;;;;;;;;;;;;;;27.09;40.78;94425.28;4996765;28;7294;-63
2023/05/05 08:04:53;;;;;;;;;;;;;;;27.11;40.87;94420.75;4983483;28;9645;-65
2023/05/05 08:08:11;;;;;;;;;;;;;;;27.11;40.58;94417.97;4988517;28;7267;-63
2023/05/05 08:10:37;;;;;;;;;;;;;;;27.12;41.30;94415.97;5020877;28;9136;-64
2023/05/05 08:13:23;;;;;;;;;;;;;;;27.14;40.68;94422.47;5021263;28;7195;-64
2023/05/05 08:15:55;;;;;;;;;;;;;;;27.17;40.24;94413.13;5022913;28;7200;-64
2023/05/05 08:18:33;;;;;;;;;;;;;;;27.15;40.46;94410.16;5027076;28;9184;-64
2023/05/05 08:21:00;;;;;;;;;;;;;;;27.17;40.68;94417.91;5023776;28;7630;-65
2023/05/05 08:23:26;;;;;;;;;;;;;;;27.17;40.38;94407.59;5029312;28;9295;-63
2023/05/05 08:25:54;;;;;;;;;;;;;;;27.18;40.29;94403.59;5033767;28;9022;-63
2023/05/05 08:28:37;;;;;;;;;;;;;;;27.20;40.10;94403.81;5037143;28;9536;-62
2023/05/05 08:31:25;;;;;;;;;;;;;;;27.19;40.43;94399.53;5046375;28;9022;-64
2023/05/05 08:33:58;;;;;;;;;;;;;;;27.22;40.49;94409.56;5022494;28;9078;-64
2023/05/05 08:36:59;;;;;;;;;;;;;;;27.25;40.20;94405.00;5024840;28;7080;-64
2023/05/05 08:39:42;;;;;;;;;;;;;;;27.26;40.24;94398.22;4993175;28;7264;-64
2023/05/05 08:42:20;;;;;;;;;;;;;;;27.27;40.18;94399.72;5001297;28;7057;-64
2023/05/05 08:44:48;;;;;;;;;;;;;;;27.26;39.92;94398.22;4989747;28;7140;-64
2023/05/05 08:47:35;;;;;;;;;;;;;;;27.26;40.02;94400.97;4995219;28;7071;-64
2023/05/05 08:50:23;;;;;;;;;;;;;;;27.27;39.85;94394.94;5002424;28;7036;-64
2023/05/05 08:53:00;;;;;;;;;;;;;;;27.29;40.05;94392.41;4990827;28;9740;-64
2023/05/05 08:56:00;;;;;;;;;;;;;;;27.30;39.94;94387.59;4978354;28;9641;-64
2023/05/05 08:58:45;;;;;;;;;;;;;;;27.31;39.93;94389.88;4966783;28;9424;-63
2023/05/05 09:01:41;;;;;;;;;;;;;;;27.32;39.71;94390.59;4957801;28;9079;-63
2023/05/05 09:04:08;;;;;;;;;;;;;;;27.33;39.72;94395.63;4919795;29;9432;-64
2023/05/05 09:06:44;;;;;;;;;;;;;;;27.33;40.15;94390.09;4929225;29;9319;-64
2023/05/05 09:09:25;;;;;;;;;;;;;;;27.36;39.08;94383.53;4919035;29;9104;-64
2023/05/05 09:12:01;;;;;;;;;;;;;;;27.37;39.67;94392.56;4933707;29;7039;-65
2023/05/05 09:14:46;;;;;;;;;;;;;;;27.37;39.54;94390.56;4901274;29;8870;-63
2023/05/05 09:17:32;;;;;;;;;;;;;;;27.38;39.63;94386.50;4906062;29;9120;-64
2023/05/05 09:20:32;;;;;;;;;;;;;;;27.37;39.06;94385.03;4900621;29;7361;-64
2023/05/05 09:23:17;;;;;;;;;;;;;;;27.36;39.72;94377.28;4913886;29;7142;-63
2023/05/05 09:26:17;;;;;;;;;;;;;;;27.35;39.47;94373.75;4920174;28;9338;-64
2023/05/05 09:28:51;;;;;;;;;;;;;;;27.34;39.63;94380.53;4903806;29;7270;-64
2023/05/05 09:31:29;;;;;;;;;;;;;;;27.32;39.83;94369.25;4930820;28;8686;-64
2023/05/05 09:33:59;;;;;;;;;;;;;;;27.32;39.51;94369.25;4932342;28;7278;-64
2023/05/05 09:36:48;;;;;;;;;;;;;;;27.32;39.79;94369.25;4944500;28;9760;-63
2023/05/05 09:40:08;;;;;;;;;;;;;;;27.32;39.93;94369.25;4932452;28;8004;-63
2023/05/05 09:43:01;;;;;;;;;;;;;;;27.33;39.63;94367.25;4926605;29;7275;-64
2023/05/05 09:45:30;;;;;;;;;;;;;;;27.30;39.56;94363.50;4917867;29;9215;-64
2023/05/05 09:48:06;;;;;;;;;;;;;;;27.31;39.60;94365.00;4933273;29;8822;-64
2023/05/05 09:51:06;;;;;;;;;;;;;;;27.32;39.72;94360.97;4933622;28;7073;-64
2023/05/05 09:53:50;;;;;;;;;;;;;;;27.31;39.56;94356.72;4930983;29;7544;-65
2023/05/05 09:56:41;;;;;;;;;;;;;;;27.34;39.99;94361.19;4913520;29;7033;-64
2023/05/05 09:59:26;;;;;;;;;;;;;;;27.35;39.40;94357.19;4915210;29;9318;-64
2023/05/05 10:02:18;;;;;;;;;;;;;;;27.36;39.76;94357.94;4930080;29;6872;-64
2023/05/05 10:05:18;;;;;;;;;;;;;;;27.36;39.50;94355.91;4938386;28;9175;-65
2023/05/05 10:08:19;;;;;;;;;;;;;;;27.37;39.43;94349.13;4951278;28;7037;-65
2023/05/05 10:14:32;;;;;;;;;;;;;;;27.38;39.36;94330.56;4937111;28;7266;-64
2023/05/05 10:17:02;;;;;;;;;;;;;;;27.39;39.55;94338.31;4944105;28;7268;-65
2023/05/05 10:19:42;;;;;;;;;;;;;;;27.40;39.58;94341.81;5031000;28;9782;-64
2023/05/05 10:22:25;;;;;;;;;;;;;;;27.39;40.29;94334.78;5033373;28;9419;-64
2023/05/05 10:25:12;;;;;;;;;;;;;;;27.38;39.82;94334.03;5036225;28;7027;-64
2023/05/05 10:27:58;;;;;;;;;;;;;;;27.40;39.54;94333.53;5032996;28;9367;-65
2023/05/05 10:30:30;;;;;;;;;;;;;;;27.40;39.64;94323.22;5037289;28;9024;-64
2023/05/05 10:33:25;;;;;;;;;;;;;;;27.41;39.61;94321.94;5023127;28;8082;-65
2023/05/05 10:36:09;;;;;;;;;;;;;;;27.44;39.67;94331.22;5026714;28;7044;-64
2023/05/05 10:38:38;;;;;;;;;;;;;;;27.45;39.37;94327.91;5050733;28;7199;-64
2023/05/05 10:41:14;;;;;;;;;;;;;;;27.47;39.61;94328.13;5041676;28;7180;-64
2023/05/05 10:43:54;;;;;;;;;;;;;;;27.48;39.46;94326.88;5035128;28;9099;-65
2023/05/05 10:46:31;;;;;;;;;;;;;;;27.49;39.79;94322.81;5027815;28;9012;-65
2023/05/05 10:49:54;;;;;;;;;;;;;;;27.49;39.48;94313.81;5030799;28;9351;-64
2023/05/05 10:52:54;;;;;;;;;;;;;;;27.49;39.69;94302.75;4997745;28;9098;-64
2023/05/05 10:55:39;;;;;;;;;;;;;;;27.50;39.50;94302.22;4996629;28;7250;-64
2023/05/05 10:58:43;;;;;;;;;;;;;;;27.50;39.36;94293.94;5000577;28;9558;-65
2023/05/05 11:01:38;;;;;;;;;;;;;;;27.52;39.28;94294.16;4978181;28;7251;-64
2023/05/05 11:04:23;;;;;;;;;;;;;;;27.52;39.41;94288.63;4960870;28;7265;-65
2023/05/05 11:10:43;;;;;;;;;;;;;;;27.53;39.34;94281.09;4973975;28;8764;-64
2023/05/05 11:13:09;;;;;;;;;;;;;;;27.52;39.06;94280.34;4981414;28;9085;-65
2023/05/05 11:15:36;;;;;;;;;;;;;;;27.48;39.22;94268.88;4985171;28;7219;-64
2023/05/05 11:18:03;;;;;;;;;;;;;;;27.52;39.54;94271.31;4977089;28;7460;-64
2023/05/05 11:20:38;;;;;;;;;;;;;;;27.53;39.62;94275.56;4987948;28;7278;-64
2023/05/05 11:23:29;;;;;;;;;;;;;;;27.55;39.52;94264.75;4976192;28;7236;-64
2023/05/05 11:26:03;;;;;;;;;;;;;;;27.56;39.78;94269.72;4973598;28;8472;-65
2023/05/05 11:29:05;;;;;;;;;;;;;;;27.55;39.62;94262.72;4974742;28;8716;-65
2023/05/05 11:31:32;;;;;;;;;;;;;;;27.55;40.10;94259.22;4971850;28;6860;-64
2023/05/05 11:38:02;;;;;;;;;;;;;;;27.57;39.67;94257.41;5011929;28;7030;-64
2023/05/05 11:40:36;;;;;;;;;;;;;;;27.58;39.62;94256.13;5001500;28;9119;-64
2023/05/05 11:43:06;;;;;;;;;;;;;;;27.58;39.88;94255.38;5003270;28;8900;-64
2023/05/05 11:46:11;;;;;;;;;;;;;;;27.58;39.63;94253.38;5000347;28;8802;-64
2023/05/05 11:49:24;;;;;;;;;;;;;;;27.57;39.82;94248.38;4931935;28;8684;-64
2023/05/05 11:51:58;;;;;;;;;;;;;;;27.63;40.01;94255.31;4877328;29;9231;-64
2023/05/05 11:54:58;;;;;;;;;;;;;;;27.66;39.60;94245.22;4881342;29;7042;-65
2023/05/05 11:57:28;;;;;;;;;;;;;;;27.67;39.88;94254.97;4808292;29;7370;-64
2023/05/05 12:00:47;;;;;;;;;;;;;;;27.66;39.57;94259.03;4801916;29;7258;-65
2023/05/05 12:03:47;;;;;;;;;;;;;;;27.64;39.99;94256.06;4813743;29;7578;-65
2023/05/05 12:06:54;;;;;;;;;;;;;;;27.66;40.09;94245.22;4823831;29;7591;-64
2023/05/05 12:09:29;;;;;;;;;;;;;;;27.68;39.52;94250.22;4800017;29;8442;-64
2023/05/05 12:12:35;;;;;;;;;;;;;;;27.66;39.99;94244.47;4819261;29;7860;-63
2023/05/05 12:15:35;;;;;;;;;;;;;;;27.68;40.03;94247.44;4765193;30;8201;-63
2023/05/05 12:18:38;;;;;;;;;;;;;;;27.71;40.09;94243.63;4778442;29;8145;-63
2023/05/05 12:21:22;;;;;;;;;;;;;;;27.71;40.38;94227.06;4772457;30;8441;-64
2023/05/05 12:24:23;;;;;;;;;;;;;;;27.73;40.26;94235.56;4785371;29;7769;-64
2023/05/05 12:26:50;;;;;;;;;;;;;;;27.75;40.16;94233.75;4836682;29;9066;-64
2023/05/05 12:29:28;;;;;;;;;;;;;;;27.77;40.14;94227.69;4839171;29;9155;-65
2023/05/05 12:31:54;;;;;;;;;;;;;;;27.77;39.31;94231.22;4830125;29;9214;-63
2023/05/05 12:34:22;;;;;;;;;;;;;;;27.73;40.23;94218.97;4870610;29;8854;-63
2023/05/05 12:36:51;;;;;;;;;;;;;;;27.74;40.41;94226.72;4909708;29;7135;-65
2023/05/05 12:39:17;;;;;;;;;;;;;;;27.75;40.53;94224.72;4909924;29;7223;-65
2023/05/05 12:41:43;;;;;;;;;;;;;;;27.80;40.71;94212.81;4931190;28;7047;-65
2023/05/05 12:44:10;;;;;;;;;;;;;;;27.82;40.74;94211.00;4952548;28;8669;-63
2023/05/05 12:47:10;;;;;;;;;;;;;;;27.87;40.67;94214.94;4953333;28;8878;-64
2023/05/05 12:50:02;;;;;;;;;;;;;;;27.89;40.45;94202.09;4957099;28;7041;-64
2023/05/05 12:52:45;;;;;;;;;;;;;;;27.91;39.70;94188.47;5024704;28;7195;-65
2023/05/05 12:55:35;;;;;;;;;;;;;;;27.91;40.21;94185.72;5037151;28;7247;-64
2023/05/05 12:58:48;;;;;;;;;;;;;;;27.93;40.11;94185.16;5055431;28;7268;-64
2023/05/05 13:01:48;;;;;;;;;;;;;;;27.95;40.30;94175.06;4989197;28;7330;-65
2023/05/05 13:04:49;;;;;;;;;;;;;;;27.98;39.90;94176.06;4991811;28;7232;-65
2023/05/05 13:07:52;;;;;;;;;;;;;;;27.98;40.08;94163.00;4962428;28;9381;-65
2023/05/05 13:14:07;;;;;;;;;;;;;;;27.99;39.53;94160.97;4922942;29;8807;-64
2023/05/05 13:16:34;;;;;;;;;;;;;;;27.99;40.02;94152.69;4908417;29;8748;-64
2023/05/05 13:19:34;;;;;;;;;;;;;;;28.01;39.66;94142.59;4934117;29;7156;-64
2023/05/05 13:22:12;;;;;;;;;;;;;;;28.01;39.56;94144.59;4917689;29;7571;-64
2023/05/05 13:24:47;;;;;;;;;;;;;;;27.98;39.71;94140.13;4910331;29;9214;-64
2023/05/05 13:27:22;;;;;;;;;;;;;;;28.00;39.87;94134.81;4918887;29;8443;-64
2023/05/05 13:30:33;;;;;;;;;;;;;;;28.01;39.59;94128.00;4918671;29;9331;-64
2023/05/05 13:33:36;;;;;;;;;;;;;;;27.99;39.63;94120.22;4920177;29;9105;-63
2023/05/05 13:36:26;;;;;;;;;;;;;;;28.00;39.55;94113.44;4926680;29;9696;-64
2023/05/05 13:39:01;;;;;;;;;;;;;;;27.99;39.58;94114.72;4908900;29;7318;-64
2023/05/05 13:41:53;;;;;;;;;;;;;;;27.98;39.61;94110.47;4915659;29;8625;-64
2023/05/05 13:44:41;;;;;;;;;;;;;;;27.98;39.96;94118.75;4931350;29;6975;-64
2023/05/05 13:47:18;;;;;;;;;;;;;;;27.97;39.71;94108.97;4944846;28;9049;-64
2023/05/05 13:50:13;;;;;;;;;;;;;;;28.00;39.52;94113.44;4959053;28;8792;-64
2023/05/05 13:53:09;;;;;;;;;;;;;;;27.99;39.61;94108.47;4952218;28;8607;-64
2023/05/05 13:55:38;;;;;;;;;;;;;;;28.00;39.27;94107.91;4932542;28;9091;-64
2023/05/05 13:58:33;;;;;;;;;;;;;;;28.01;39.52;94103.13;4951519;28;7248;-64
2023/05/05 14:01:15;;;;;;;;;;;;;;;28.01;39.47;94108.66;4864441;29;9609;-64
2023/05/05 14:03:46;;;;;;;;;;;;;;;28.00;39.48;94107.16;4864413;29;8183;-63
2023/05/05 14:06:18;;;;;;;;;;;;;;;27.99;39.87;94103.66;4858271;29;7381;-64
2023/05/05 14:09:19;;;;;;;;;;;;;;;28.00;39.84;94099.63;4861440;29;7281;-64
2023/05/05 14:12:12;;;;;;;;;;;;;;;28.02;39.68;94096.31;4895134;29;7310;-64
2023/05/05 14:14:49;;;;;;;;;;;;;;;28.02;39.63;94086.00;4894542;29;9163;-63
2023/05/05 14:17:19;;;;;;;;;;;;;;;28.03;39.66;94087.50;4881301;29;7070;-63
2023/05/05 14:20:35;;;;;;;;;;;;;;;28.05;39.61;94084.19;4895607;29;8531;-64
2023/05/05 14:23:03;;;;;;;;;;;;;;;28.07;39.75;94079.63;4892757;29;7032;-64
2023/05/05 14:25:29;;;;;;;;;;;;;;;28.08;39.66;94083.84;4893703;29;7141;-63
2023/05/05 14:27:55;;;;;;;;;;;;;;;28.11;39.64;94082.81;4896747;29;7325;-64
2023/05/05 14:30:21;;;;;;;;;;;;;;;28.13;40.03;94076.72;4930940;28;7252;-64
2023/05/05 14:32:47;;;;;;;;;;;;;;;28.13;39.94;94076.72;4914883;29;10197;-64
2023/05/05 14:35:16;;;;;;;;;;;;;;;28.16;40.10;94072.91;4914856;29;9207;-64
2023/05/05 14:37:42;;;;;;;;;;;;;;;28.19;40.26;94077.34;4974630;28;8810;-64